Bullville, New York
Current Conditions -  °F | °C
As of 3:54 AM on Monday 22 Dec 2014 (Local Time) from KMGJ Reporting Station
Overcast Overcast  
Wind Chill: 25°   Ceiling: 1200
Heat Index: 31°   Visibility: 10mi
Dew Point: 27°   Wind: 6mph
Humidity: 85%   Direction: 40°NE
Pressure: 30.32"   Gusts: NA
Location:  41.54°N, 74.36°W
Report Text: KMGJ 220854Z AUTO 04005KT 10SM OVC012 M01/M03 A3032 RMK AO2 SLP271 T10061028 50000 TSNO
Loading
Personal Weather Stations






























Interactive Weather Map New forecast layout! Learn more

10-Day Weather Forecast

Advertisements
Track Severe Weather on mobile